16 mai 2022

Temps Code Temps Temp. Vue Des nuages Vent METAR/SPECI
17:30
V
25 °C 10 km+ - 320°   320° 8 kt METAR LFCR 161530Z AUTO 32008KT 270V360 CAVOK 25/13 Q1020 NOSIG
17:00
V
25 °C 10 km+ - 330°   330° 5 kt METAR LFCR 161500Z AUTO 33005KT 280V050 CAVOK 25/14 Q1020 NOSIG
16:30
V
25 °C 10 km+ - 260°   260° 7 kt METAR LFCR 161430Z AUTO 26007KT 220V330 CAVOK 25/13 Q1020 NOSIG
16:00
V
26 °C 10 km+ - 290°   290° 7 kt METAR LFCR 161400Z AUTO 29007KT 220V330 CAVOK 26/13 Q1020 NOSIG
15:30
V
26 °C 10 km+ - Var   Var 4 kt METAR LFCR 161330Z AUTO VRB04KT CAVOK 26/12 Q1020 NOSIG
15:00
V
25 °C 10 km+ - 300°   300° 7 kt METAR LFCR 161300Z AUTO 30007KT 230V360 CAVOK 25/13 Q1020 NOSIG
14:30
V
24 °C 10 km+ - 330°   330° 6 kt METAR LFCR 161230Z AUTO 33006KT 250V040 CAVOK 24/13 Q1021 NOSIG
14:00
V
26 °C 10 km+ - 310°   310° 4 kt METAR LFCR 161200Z AUTO 31004KT 240V010 CAVOK 26/14 Q1021 NOSIG
13:30
V
25 °C 10 km+ - Var   Var 2 kt METAR LFCR 161130Z AUTO VRB02KT CAVOK 25/13 Q1021 NOSIG
13:00
V
25 °C 10 km+ - 060°   060° 3 kt METAR LFCR 161100Z AUTO 06003KT 330V130 CAVOK 25/14 Q1021 NOSIG
12:30
V
24 °C 10 km+ - Var   Var 3 kt METAR LFCR 161030Z AUTO VRB03KT CAVOK 24/12 Q1021 NOSIG
12:00
V
24 °C 10 km+ - 100°   100° 3 kt METAR LFCR 161000Z AUTO 10003KT 050V140 CAVOK 24/13 Q1021 NOSIG
11:30
V
22 °C 10 km+ - Var   Var 2 kt METAR LFCR 160930Z AUTO VRB02KT CAVOK 22/12 Q1021 NOSIG
11:00
V
21 °C 10 km+ - 190°   190° 4 kt METAR LFCR 160900Z AUTO 19004KT 100V240 CAVOK 21/11 Q1021 NOSIG
10:30
V
20 °C 10 km+ - 120°   120° 3 kt METAR LFCR 160830Z AUTO 12003KT 050V190 CAVOK 20/10 Q1021 NOSIG
10:00
V
19 °C 10 km+ - 120°   120° 5 kt METAR LFCR 160800Z AUTO 12005KT 080V170 CAVOK 19/10 Q1020 NOSIG
09:30
V
17 °C 10 km+ - 130°   130° 5 kt METAR LFCR 160730Z AUTO 13005KT 080V170 CAVOK 17/09 Q1021 NOSIG
09:00
V
16 °C 10 km+ - 110°   110° 3 kt METAR LFCR 160700Z AUTO 11003KT CAVOK 16/09 Q1020 NOSIG
08:30
V
15 °C 10 km+ - Var   Var 2 kt METAR LFCR 160630Z AUTO VRB02KT CAVOK 15/07 Q1020 NOSIG
08:00
V
13 °C 10 km+ - Var   Var 2 kt METAR LFCR 160600Z AUTO VRB02KT CAVOK 13/07 Q1020 NOSIG
07:30
V
12 °C 10 km+ - Var   Var 3 kt METAR LFCR 160530Z AUTO VRB03KT CAVOK 12/06 Q1019 NOSIG
07:00
V
11 °C 10 km+ - 120°   120° 6 kt METAR LFCR 160500Z AUTO 12006KT CAVOK 11/05 Q1019 NOSIG
06:30
V
12 °C 10 km+ - 100°   100° 5 kt METAR LFCR 160430Z AUTO 10005KT CAVOK 12/06 Q1019 NOSIG
06:00
V
12 °C 10 km+ - 090°   090° 3 kt METAR LFCR 160400Z AUTO 09003KT CAVOK 12/06 Q1019 TEMPO FEW060CB BKN110
05:30
V
12 °C 10 km+ - 040°   040° 3 kt METAR LFCR 160330Z AUTO 04003KT CAVOK 12/05 Q1019 TEMPO FEW060CB BKN110
05:00
V
11 °C 10 km+ - 200°   200° 4 kt METAR LFCR 160300Z AUTO 20004KT CAVOK 11/05 Q1019 TEMPO FEW060CB BKN110
04:30
V
13 °C 10 km+ - 110°   110° 5 kt METAR LFCR 160230Z AUTO 11005KT CAVOK 13/04 Q1018 TEMPO FEW060CB BKN110
04:00
V
12 °C 10 km+ - Var   Var 1 kt METAR LFCR 160200Z AUTO VRB01KT CAVOK 12/05 Q1018 TEMPO FEW060CB BKN110
03:30
V
13 °C 10 km+ - 260°   260° 2 kt METAR LFCR 160130Z AUTO 26002KT 9999 ///TCU 13/04 Q1019 TEMPO FEW060CB BKN110
03:00
V
15 °C 10 km+ - 070°   070° 3 kt METAR LFCR 160100Z AUTO 07003KT CAVOK 15/03 Q1018 TEMPO FEW060CB BKN110
02:30
V
16 °C 10 km+ - 110°   110° 8 kt METAR LFCR 160030Z AUTO 11008KT CAVOK 16/03 Q1018 TEMPO FEW060CB BKN110
02:00
V
17 °C 10 km+ - 100°   100° 9 kt METAR LFCR 160000Z AUTO 10009KT CAVOK 17/04 Q1018 TEMPO FEW060CB BKN110
01:30
V
17 °C 10 km+ - 110°   110° 10 kt METAR LFCR 152330Z AUTO 11010KT 9999 //////TCU 17/03 Q1018 TEMPO FEW060CB BKN110
01:00
V
17 °C 10 km+ - 100°   100° 8 kt METAR LFCR 152300Z AUTO 10008KT 060V120 CAVOK 17/04 Q1018 NOSIG
00:30
V
17 °C 10 km+ - Var   Var 3 kt METAR LFCR 152230Z AUTO VRB03KT 9999 //////CB 17/04 Q1019 BECMG NSC
00:00
V
17 °C 10 km+ - 160°   160° 4 kt METAR LFCR 152200Z AUTO 16004KT 120V280 9999 //////TCU 17/03 Q1019 BECMG NSC

15 mai 2022

Temps Code Temps Temp. Vue Des nuages Vent METAR/SPECI
23:30
V
17 °C 10 km+ - Var   Var 11 26 kt METAR LFCR 152130Z AUTO VRB11G26KT 9999 //////TCU 17/03 Q1019 BECMG NSC
23:00
V
18 °C 10 km+ - 120°   120° 12 kt METAR LFCR 152100Z AUTO 12012KT CAVOK 18/02 Q1017 NOSIG
22:30
V
18 °C 10 km+ - 120°   120° 15 kt METAR LFCR 152030Z AUTO 12015KT CAVOK 18/03 Q1016 BECMG 14004KT
22:00
V
19 °C 10 km+ - 120°   120° 12 kt METAR LFCR 152000Z AUTO 12012KT CAVOK 19/05 Q1016 TEMPO VRB20G35KT FEW060CB
21:30
V
19 °C 10 km+ - 120°   120° 10 kt METAR LFCR 151930Z AUTO 12010KT CAVOK 19/08 Q1016 TEMPO VRB20G35KT FEW060CB
21:00
V
20 °C 10 km+ - 110°   110° 13 kt METAR LFCR 151900Z AUTO 11013KT CAVOK 20/08 Q1015 TEMPO VRB20G35KT FEW060CB
20:30
V
21 °C 10 km+ - 130°   130° 13 kt METAR LFCR 151830Z AUTO 13013KT CAVOK 21/09 Q1016 TEMPO VRB20G35KT FEW060CB
20:00
V
21 °C 10 km+ - 130°   130° 14 kt METAR LFCR 151800Z AUTO 13014KT CAVOK 21/09 Q1015 TEMPO VRB20G35KT FEW060CB
19:30
V
22 °C 10 km+ - 140°   140° 12 kt METAR LFCR 151730Z AUTO 14012KT CAVOK 22/10 Q1015 TEMPO VRB20G35KT FEW060CB
19:00
V
24 °C 10 km+ - 130°   130° 15 kt METAR LFCR 151700Z AUTO 13015KT CAVOK 24/10 Q1015 TEMPO VRB20G35KT 4000 -SHRA SCT060CB
18:30
V
24 °C 10 km+ - 140°   140° 13 kt METAR LFCR 151630Z AUTO 14013KT CAVOK 24/10 Q1015 TEMPO VRB20G35KT 4000 -SHRA SCT060CB
18:00
V
24 °C 10 km+ - 140°   140° 14 kt METAR LFCR 151600Z AUTO 14014KT CAVOK 24/10 Q1015 TEMPO VRB20G35KT 4000 -SHRA SCT060CB
17:30
V
25 °C 10 km+ - 130°   130° 14 kt METAR LFCR 151530Z AUTO 13014KT CAVOK 25/11 Q1016 TEMPO VRB20G35KT 4000 -SHRA SCT060CB
17:00
V
25 °C 10 km+ - 140°   140° 14 kt METAR LFCR 151500Z AUTO 14014KT CAVOK 25/12 Q1015 TEMPO VRB20G35KT 4000 -SHRA SCT060CB
16:30
V
25 °C 10 km+ - 130°   130° 13 kt METAR LFCR 151430Z AUTO 13013KT 100V160 CAVOK 25/12 Q1016 TEMPO VRB20G35KT 4000 -SHRA SCT060CB
16:00
V
25 °C 10 km+ - 140°   140° 14 kt METAR LFCR 151400Z AUTO 14014KT CAVOK 25/11 Q1016 TEMPO 4000 -SHRA SCT060CB BECMG 14015G25KT
15:30
V
25 °C 10 km+ - 140°   140° 12 kt METAR LFCR 151330Z AUTO 14012KT 100V170 CAVOK 25/11 Q1016 TEMPO 4000 -SHRA SCT060CB BECMG 14015G25KT
15:00
V
25 °C 10 km+ - 140°   140° 12 kt METAR LFCR 151300Z AUTO 14012KT 110V180 CAVOK 25/12 Q1016 TEMPO 4000 -SHRA SCT060CB BECMG 14015G25KT
14:30
V
25 °C 10 km+ - 120°   120° 14 kt METAR LFCR 151230Z AUTO 12014KT CAVOK 25/11 Q1016 TEMPO 4000 -SHRA SCT060CB BECMG 14015G25KT
14:00
V
25 °C 10 km+ - 120°   120° 17 kt METAR LFCR 151200Z AUTO 12017KT CAVOK 25/12 Q1016 BECMG 14015G25KT FEW070CB
13:30
V
24 °C 10 km+ - 130°   130° 16 kt METAR LFCR 151130Z AUTO 13016KT CAVOK 24/10 Q1016 BECMG 14015G25KT FEW070CB
13:00
V
24 °C 10 km+ - 140°   140° 17 kt METAR LFCR 151100Z AUTO 14017KT CAVOK 24/10 Q1017 NOSIG
12:30
V
23 °C 10 km+ - 120°   120° 18 kt METAR LFCR 151030Z AUTO 12018KT CAVOK 23/09 Q1017 NOSIG
12:00
V
24 °C 10 km+ - 130°   130° 16 kt METAR LFCR 151000Z AUTO 13016KT CAVOK 24/10 Q1017 NOSIG
11:30
V
23 °C 10 km+ - 130°   130° 16 kt METAR LFCR 150930Z AUTO 13016KT CAVOK 23/10 Q1017 NOSIG
11:00
V
22 °C 10 km+ - 120°   120° 17 kt METAR LFCR 150900Z AUTO 12017KT CAVOK 22/09 Q1016 NOSIG
10:30
V
22 °C 10 km+ - 130°   130° 17 kt METAR LFCR 150830Z AUTO 13017KT CAVOK 22/09 Q1016 NOSIG
10:00
V
21 °C 10 km+ - 120°   120° 17 kt METAR LFCR 150800Z AUTO 12017KT CAVOK 21/09 Q1016 NOSIG
09:30
V
20 °C 10 km+ - 130°   130° 17 kt METAR LFCR 150730Z AUTO 13017KT CAVOK 20/08 Q1016 NOSIG
09:00
V
20 °C 10 km+ - 120°   120° 15 kt METAR LFCR 150700Z AUTO 12015KT CAVOK 20/08 Q1016 NOSIG
08:30
V
19 °C 10 km+ - 130°   130° 15 kt METAR LFCR 150630Z AUTO 13015KT CAVOK 19/07 Q1016 NOSIG
08:00
V
0 °C 10 km+ - 120°   120° 12 kt METAR LFCR 150600Z AUTO 12012KT CAVOK ///// Q1016 NOSIG
07:30
V
18 °C 10 km+ - 120°   120° 10 kt METAR LFCR 150530Z AUTO 12010KT CAVOK 18/08 Q1016 NOSIG
07:00
V
17 °C 10 km+ - 130°   130° 11 kt METAR LFCR 150500Z AUTO 13011KT CAVOK 17/09 Q1016 NOSIG
06:30
V
16 °C 10 km+ - 090°   090° 7 kt METAR LFCR 150430Z AUTO 09007KT CAVOK 16/10 Q1016 NOSIG
06:00
V
16 °C 10 km+ - 100°   100° 6 kt METAR LFCR 150400Z AUTO 10006KT CAVOK 16/09 Q1016 NOSIG
05:30
V
17 °C 10 km+ - 110°   110° 8 kt METAR LFCR 150330Z AUTO 11008KT CAVOK 17/10 Q1016 NOSIG
05:00
V
17 °C 10 km+ - 100°   100° 7 kt METAR LFCR 150300Z AUTO 10007KT CAVOK 17/10 Q1016 NOSIG
04:30
V
17 °C 10 km+ - 100°   100° 6 kt METAR LFCR 150230Z AUTO 10006KT CAVOK 17/09 Q1016 NOSIG
04:00
V
16 °C 10 km+ - 110°   110° 6 kt METAR LFCR 150200Z AUTO 11006KT 070V140 CAVOK 16/10 Q1016 NOSIG
03:30
V
16 °C 10 km+ - 130°   130° 3 kt METAR LFCR 150130Z AUTO 13003KT 100V160 CAVOK 16/09 Q1017 NOSIG
03:00
V
15 °C 10 km+ - 160°   160° 3 kt METAR LFCR 150100Z AUTO 16003KT 120V190 CAVOK 15/08 Q1017 NOSIG
02:30
V
17 °C 10 km+ - 090°   090° 4 kt METAR LFCR 150030Z AUTO 09004KT CAVOK 17/09 Q1017 NOSIG
02:00
V
18 °C 10 km+ - 110°   110° 8 kt METAR LFCR 150000Z AUTO 11008KT CAVOK 18/08 Q1017 NOSIG
01:30
V
17 °C 10 km+ - 140°   140° 8 kt METAR LFCR 142330Z AUTO 14008KT CAVOK 17/09 Q1018 NOSIG
01:00
V
18 °C 10 km+ - 130°   130° 8 kt METAR LFCR 142300Z AUTO 13008KT CAVOK 18/09 Q1018 NOSIG
00:30
V
18 °C 10 km+ - 130°   130° 10 kt METAR LFCR 142230Z AUTO 13010KT CAVOK 18/09 Q1018 TEMPO 06005KT
00:00
V
18 °C 10 km+ - 120°   120° 8 kt METAR LFCR 142200Z AUTO 12008KT CAVOK 18/10 Q1018 NOSIG

14 mai 2022

Temps Code Temps Temp. Vue Des nuages Vent METAR/SPECI
23:30
V
18 °C 10 km+ - 140°   140° 7 kt METAR LFCR 142130Z AUTO 14007KT CAVOK 18/12 Q1018 NOSIG
23:00
V
18 °C 10 km+ - 140°   140° 7 kt METAR LFCR 142100Z AUTO 14007KT CAVOK 18/12 Q1018 NOSIG
22:30
V
18 °C 10 km+ - 140°   140° 8 kt METAR LFCR 142030Z AUTO 14008KT CAVOK 18/13 Q1018 NOSIG
22:00
V
18 °C 10 km+ - 150°   150° 4 kt METAR LFCR 142000Z AUTO 15004KT CAVOK 18/13 Q1018 NOSIG
21:30
V
20 °C 10 km+ - 140°   140° 2 kt METAR LFCR 141930Z AUTO 14002KT CAVOK 20/13 Q1017 NOSIG
21:00
V
23 °C 10 km+ - Var   Var 1 kt METAR LFCR 141900Z AUTO VRB01KT CAVOK 23/12 Q1017 NOSIG
20:30
V
24 °C 10 km+ - 350°   350° 3 kt METAR LFCR 141830Z AUTO 35003KT CAVOK 24/12 Q1017 NOSIG
20:00
V
25 °C 10 km+ - 330°   330° 4 kt METAR LFCR 141800Z AUTO 33004KT CAVOK 25/12 Q1017 NOSIG
19:30
V
26 °C 10 km+ - 340°   340° 5 kt METAR LFCR 141730Z AUTO 34005KT CAVOK 26/11 Q1017 NOSIG
19:00
V
26 °C 10 km+ - 330°   330° 5 kt METAR LFCR 141700Z AUTO 33005KT CAVOK 26/12 Q1017 NOSIG
18:30
V
26 °C 10 km+ - 350°   350° 5 kt METAR LFCR 141630Z AUTO 35005KT 300V040 CAVOK 26/13 Q1017 NOSIG
18:00
V
26 °C 10 km+ - 330°   330° 4 kt METAR LFCR 141600Z AUTO 33004KT 300V020 CAVOK 26/12 Q1018 NOSIG
17:30
V
26 °C 10 km+ - 340°   340° 5 kt METAR LFCR 141530Z AUTO 34005KT 310V020 CAVOK 26/12 Q1018 NOSIG
17:00
V
26 °C 10 km+ - 320°   320° 5 kt METAR LFCR 141500Z AUTO 32005KT 260V030 CAVOK 26/13 Q1018 NOSIG
Données plus anciennes

Télécharge notre application

Un accès facile à toute la météo aéronautique sur ton téléphone portable et ta tablette.
Avec de nombreuses fonctionnalités non disponibles sur le site Web, comme la prise en charge hors ligne et une liste personnelle d'aéroports.